Terminal Aerodrome Forecast
Issued by NWS

Home | Current Version | Previous Version | Text Only | Print | Product List | Glossary On
Versions: 1 2 3 4 5 6 7 8 9 10 11 12 13 14 15 16 17 18 19 20 21 22 23 24 25 26 27 28 29 30 31 32
075
FTAK31 PANC 281757
TAFAGK
TAF
PAGK 281757Z 2818/2918 16006KT P6SM BKN004
      TEMPO 2818/2819 3SM BR SCT004
     FM281900 15010KT P6SM OVC100
     FM282100 16015G25KT P6SM VCSH BKN100
     FM291200 16008KT P6SM -RA OVC040=

USA.gov is the U.S. government's official web portal to all federal, state and local government web resources and services.